createdAt,value
2022-09-30T00:00:48.657Z,56.20
2022-09-30T00:03:38.913Z,56.20
2022-09-30T00:06:28.382Z,56.20
2022-09-30T00:09:16.659Z,56.20
2022-09-30T00:12:04.837Z,56.30
2022-09-30T00:14:52.710Z,56.20
2022-09-30T00:17:40.465Z,56.90
2022-09-30T00:20:28.251Z,56.40
2022-09-30T00:23:16.285Z,56.30
2022-09-30T00:26:15.645Z,56.20
2022-09-30T00:29:04.705Z,56.30
2022-09-30T00:31:52.498Z,56.30
2022-09-30T00:34:40.257Z,56.30
2022-09-30T00:37:28.022Z,56.30
2022-09-30T00:40:15.831Z,56.30
2022-09-30T00:43:03.573Z,56.20
2022-09-30T00:45:57.635Z,56.30
2022-09-30T00:48:47.685Z,56.40
2022-09-30T00:51:45.842Z,56.10
2022-09-30T00:54:34.638Z,56.40
2022-09-30T00:57:22.388Z,56.50
2022-09-30T01:00:10.455Z,56.40
2022-09-30T01:02:58.274Z,56.40
2022-09-30T01:05:46.086Z,56.40
2022-09-30T01:08:37.715Z,56.60
2022-09-30T01:11:27.752Z,56.50
2022-09-30T01:14:24.110Z,56.40
2022-09-30T01:17:22.982Z,56.40
2022-09-30T01:20:47.153Z,56.40
2022-09-30T01:23:49.795Z,56.50
2022-09-30T01:27:17.097Z,56.40
2022-09-30T01:30:15.319Z,56.40
2022-09-30T01:33:10.482Z,56.50
2022-09-30T01:36:32.507Z,56.90
2022-09-30T01:39:46.301Z,56.70
2022-09-30T01:42:54.920Z,56.60
2022-09-30T01:45:56.601Z,56.40
2022-09-30T01:48:56.211Z,56.40
2022-09-30T01:52:05.855Z,56.50
2022-09-30T01:55:08.487Z,56.40
2022-09-30T01:58:11.633Z,56.50
2022-09-30T02:01:03.516Z,56.40
2022-09-30T02:04:02.807Z,56.60
2022-09-30T02:06:57.025Z,56.50
2022-09-30T02:10:00.032Z,56.80
2022-09-30T02:12:56.097Z,56.60
2022-09-30T02:15:52.957Z,56.60
2022-09-30T02:18:52.116Z,56.50
2022-09-30T02:21:43.192Z,56.50
2022-09-30T02:24:37.075Z,56.50
2022-09-30T02:27:41.525Z,56.60
2022-09-30T02:30:30.035Z,56.50
2022-09-30T02:33:25.330Z,56.40
2022-09-30T02:37:02.029Z,56.50
2022-09-30T02:40:32.041Z,56.60
2022-09-30T02:43:21.410Z,56.50
2022-09-30T02:46:21.136Z,56.70
2022-09-30T02:49:22.942Z,56.60
2022-09-30T02:52:43.254Z,56.70
2022-09-30T02:55:56.412Z,56.60
2022-09-30T02:58:46.045Z,56.60
2022-09-30T03:01:33.852Z,56.60
2022-09-30T03:04:31.077Z,56.60
2022-09-30T03:07:19.046Z,56.60
2022-09-30T03:10:18.236Z,57.30
2022-09-30T03:13:23.841Z,56.70
2022-09-30T03:16:39.204Z,56.60
2022-09-30T03:19:57.227Z,56.60
2022-09-30T03:22:55.458Z,56.70
2022-09-30T03:26:29.808Z,56.70
2022-09-30T03:29:45.124Z,56.70
2022-09-30T03:32:57.834Z,56.90
2022-09-30T03:36:39.989Z,56.70
2022-09-30T03:39:37.356Z,56.70
2022-09-30T03:42:41.332Z,56.70
2022-09-30T03:45:46.561Z,56.90
2022-09-30T03:48:37.832Z,57.30
2022-09-30T03:51:25.893Z,56.70
2022-09-30T03:54:14.424Z,56.70
2022-09-30T03:57:05.081Z,56.70
2022-09-30T03:59:52.835Z,56.70
2022-09-30T04:02:40.717Z,56.70
2022-09-30T04:05:28.434Z,56.70
2022-09-30T04:08:16.915Z,56.90
2022-09-30T04:11:05.567Z,56.70
2022-09-30T04:13:53.296Z,57.40
2022-09-30T04:16:41.401Z,56.70
2022-09-30T04:19:29.275Z,56.70
2022-09-30T04:22:17.119Z,56.90
2022-09-30T04:25:05.469Z,56.70
2022-09-30T04:27:54.539Z,56.80
2022-09-30T04:30:42.250Z,56.70
2022-09-30T04:33:30.153Z,56.80
2022-09-30T04:36:18.329Z,56.70
2022-09-30T04:39:06.477Z,56.80
2022-09-30T04:41:54.216Z,56.70
2022-09-30T04:44:41.925Z,56.80
2022-09-30T04:47:30.109Z,56.80
2022-09-30T04:50:18.254Z,56.80
2022-09-30T04:53:06.454Z,56.80
2022-09-30T04:56:00.213Z,56.80
2022-09-30T04:58:47.990Z,56.70
2022-09-30T05:01:36.002Z,56.70
2022-09-30T05:04:23.721Z,56.70
2022-09-30T05:07:11.623Z,56.80
2022-09-30T05:09:59.531Z,56.80
2022-09-30T05:12:47.486Z,56.80
2022-09-30T05:15:35.634Z,56.90
2022-09-30T05:18:26.361Z,56.80
2022-09-30T05:21:18.240Z,56.90
2022-09-30T05:24:06.015Z,56.90
2022-09-30T05:26:53.839Z,56.90
2022-09-30T05:29:42.301Z,57.50
2022-09-30T05:32:31.636Z,57.90
2022-09-30T05:35:19.493Z,58.30
2022-09-30T05:38:09.114Z,58.40
2022-09-30T05:40:56.917Z,58.40
2022-09-30T05:43:45.358Z,58.90
2022-09-30T05:46:33.233Z,59.10
2022-09-30T05:49:22.123Z,58.80
2022-09-30T05:52:09.982Z,58.70
2022-09-30T05:55:01.000Z,58.70
2022-09-30T05:57:50.628Z,58.70
2022-09-30T06:00:42.561Z,58.60
2022-09-30T06:03:30.311Z,58.60
2022-09-30T06:06:19.633Z,58.60
2022-09-30T06:09:07.417Z,58.50
2022-09-30T06:11:58.058Z,59.10
2022-09-30T06:14:45.816Z,58.30
2022-09-30T06:17:34.505Z,58.30
2022-09-30T06:20:22.519Z,58.30
2022-09-30T06:23:10.310Z,58.30
2022-09-30T06:25:59.003Z,58.30
2022-09-30T06:28:46.762Z,58.20
2022-09-30T06:31:34.628Z,58.20
2022-09-30T06:34:22.469Z,58.30
2022-09-30T06:37:12.389Z,58.00
2022-09-30T06:40:00.204Z,57.90
2022-09-30T06:42:49.741Z,58.00
2022-09-30T06:45:38.280Z,57.90
2022-09-30T06:48:36.991Z,57.90
2022-09-30T06:51:26.307Z,58.00
2022-09-30T06:54:14.166Z,57.80
2022-09-30T06:57:02.121Z,57.80
2022-09-30T06:59:50.886Z,57.70
2022-09-30T07:02:39.929Z,57.70
2022-09-30T07:05:27.850Z,57.60
2022-09-30T07:08:15.754Z,57.70
2022-09-30T07:11:16.413Z,57.60
2022-09-30T07:14:05.914Z,58.10
2022-09-30T07:16:53.766Z,57.50
2022-09-30T07:19:41.598Z,57.40
2022-09-30T07:22:32.037Z,57.30
2022-09-30T07:25:19.897Z,57.20
2022-09-30T07:28:07.641Z,57.20
2022-09-30T07:31:13.468Z,57.10
2022-09-30T07:34:09.011Z,57.00
2022-09-30T07:36:56.785Z,57.00
2022-09-30T07:39:48.061Z,56.90
2022-09-30T07:42:44.919Z,56.90
2022-09-30T07:45:32.819Z,56.70
2022-09-30T07:48:58.896Z,56.70
2022-09-30T07:51:46.659Z,56.60
2022-09-30T07:54:38.827Z,56.50
2022-09-30T07:57:29.668Z,56.40
2022-09-30T08:00:41.173Z,56.30
2022-09-30T08:03:25.439Z,56.20
2022-09-30T08:06:19.535Z,56.20
2022-09-30T08:09:08.335Z,56.10
2022-09-30T08:11:56.227Z,56.10
2022-09-30T08:14:44.796Z,56.00
2022-09-30T08:17:32.536Z,56.00
2022-09-30T08:20:22.633Z,56.00
2022-09-30T08:23:10.592Z,55.90
2022-09-30T08:26:06.774Z,55.80
2022-09-30T08:28:54.966Z,54.80
2022-09-30T08:31:42.803Z,54.00
2022-09-30T08:34:33.854Z,53.30
2022-09-30T08:37:24.489Z,53.20
2022-09-30T08:40:32.620Z,52.80
2022-09-30T08:43:50.437Z,52.60
2022-09-30T08:46:45.228Z,52.50
2022-09-30T08:50:08.961Z,52.20
2022-09-30T08:53:11.028Z,52.00
2022-09-30T08:56:02.702Z,52.00
2022-09-30T08:58:56.968Z,52.10
2022-09-30T09:01:49.004Z,52.10
2022-09-30T09:04:36.893Z,52.10
2022-09-30T09:07:36.480Z,52.00
2022-09-30T09:10:43.205Z,52.20
2022-09-30T09:13:52.075Z,51.90
2022-09-30T09:17:00.221Z,52.70
2022-09-30T09:20:05.250Z,52.20
2022-09-30T09:22:52.945Z,52.10
2022-09-30T09:25:41.125Z,52.10
2022-09-30T09:28:46.469Z,52.10
2022-09-30T09:31:35.074Z,52.30
2022-09-30T09:34:26.669Z,52.20
2022-09-30T09:37:18.943Z,52.20
2022-09-30T09:40:32.425Z,52.20
2022-09-30T09:43:43.818Z,52.20
2022-09-30T09:46:48.270Z,52.60
2022-09-30T09:49:40.102Z,52.30
2022-09-30T09:52:57.768Z,52.50
2022-09-30T09:55:45.647Z,52.40
2022-09-30T09:58:34.638Z,52.30
2022-09-30T10:01:32.813Z,52.30
2022-09-30T10:04:27.223Z,52.30
2022-09-30T10:07:15.503Z,52.30
2022-09-30T10:10:23.099Z,52.30
2022-09-30T10:13:37.994Z,52.20
2022-09-30T10:16:36.999Z,52.20
2022-09-30T10:19:30.937Z,52.30
2022-09-30T10:22:20.874Z,52.20
2022-09-30T10:25:14.180Z,52.30
2022-09-30T10:28:22.681Z,52.20
2022-09-30T10:31:36.101Z,52.00
2022-09-30T10:34:40.505Z,52.00
2022-09-30T10:37:28.274Z,52.00
2022-09-30T10:40:19.064Z,51.90
2022-09-30T10:43:37.565Z,51.80
2022-09-30T10:46:39.112Z,51.70
2022-09-30T10:50:00.012Z,51.60
2022-09-30T10:52:59.561Z,51.30
2022-09-30T10:55:47.313Z,44.30
2022-09-30T10:58:50.053Z,45.00
2022-09-30T11:01:46.786Z,46.30
2022-09-30T11:04:40.116Z,46.10
2022-09-30T11:07:44.645Z,46.50
2022-09-30T11:10:57.848Z,46.80
2022-09-30T11:14:11.131Z,46.80
2022-09-30T11:17:23.270Z,47.00
2022-09-30T11:20:25.454Z,47.10
2022-09-30T11:23:32.884Z,47.30
2022-09-30T11:26:42.313Z,47.40
2022-09-30T11:29:42.571Z,47.40
2022-09-30T11:33:01.023Z,47.50
2022-09-30T11:36:42.885Z,47.50
2022-09-30T11:39:59.076Z,47.60
2022-09-30T11:42:57.990Z,47.70
2022-09-30T11:46:36.545Z,47.80
2022-09-30T11:50:06.748Z,47.90
2022-09-30T11:53:16.542Z,48.00
2022-09-30T11:56:23.038Z,48.20
2022-09-30T11:59:27.006Z,48.20
2022-09-30T12:02:44.581Z,48.30
2022-09-30T12:05:43.824Z,48.40
2022-09-30T12:08:38.214Z,48.40
2022-09-30T12:11:49.776Z,48.60
2022-09-30T12:15:00.129Z,42.90
2022-09-30T12:17:54.880Z,40.50
2022-09-30T12:20:54.083Z,40.30
2022-09-30T12:23:51.215Z,39.90
2022-09-30T12:26:41.431Z,39.60
2022-09-30T12:29:56.225Z,39.70
2022-09-30T12:33:26.920Z,38.40
2022-09-30T12:36:40.581Z,39.10
2022-09-30T12:39:50.877Z,39.40
2022-09-30T12:43:07.017Z,38.90
2022-09-30T12:46:19.513Z,38.90
2022-09-30T12:49:15.676Z,39.10
2022-09-30T12:52:13.966Z,39.50
2022-09-30T12:55:09.955Z,39.40
2022-09-30T12:58:01.334Z,39.70
2022-09-30T13:01:15.653Z,40.40
2022-09-30T13:04:03.309Z,40.70
2022-09-30T13:06:50.939Z,41.70
2022-09-30T13:10:22.048Z,41.20
2022-09-30T13:13:35.091Z,41.30
2022-09-30T13:17:03.216Z,41.50
2022-09-30T13:19:53.177Z,41.80
2022-09-30T13:22:43.153Z,41.70
2022-09-30T13:25:54.396Z,42.10
2022-09-30T13:28:42.201Z,42.20
2022-09-30T13:31:49.854Z,42.40
2022-09-30T13:34:55.432Z,42.60
2022-09-30T13:37:43.151Z,42.60
2022-09-30T13:40:57.138Z,42.70
2022-09-30T13:43:50.902Z,42.90
2022-09-30T13:46:51.784Z,43.00
2022-09-30T13:49:58.015Z,43.30
2022-09-30T13:52:59.131Z,43.40
2022-09-30T13:55:50.896Z,43.60
2022-09-30T13:59:00.333Z,43.80
2022-09-30T14:02:29.446Z,43.90
2022-09-30T14:05:35.139Z,43.90
2022-09-30T14:08:41.047Z,44.10
